Hlavní strana
METAR-TAF:

METAR-TAF

Letiště :

Huntington, Západní Virginie, Spojené státy americké

zeměpisná šířka: 38-21-54N, zeměpisná délka: 082-33-18W, výška: 252 m

Aktuální stav počasí

Zpráva byla vytvořena před 27 minutami, v 23:51 UTC
Východoseverovýchodní vítr 4 kt
Teplota 4°C
Vlhkost vzduchu 56%
Tlak 1028 hPa
Viditelnost: 16.1 km
Jasno

METAR: KHTS 072351Z 07004KT 10SM CLR 04/M04 A3036 RMK AO2 SLP288 T00391039 10078 20039 53001

Čas: 19:18 (00:18 UTC)

Předpověď počasí

Zpráva byla vytvořena před 58 minutami, v 23:20 UTC
Předpověď platná od 08 v 00 UTC do 08 v 24 UTC
vítr z různých směrů 4 kt
Viditelnost: 10 km
Jasno
Od 08 v 0900 UTC
Severní vítr kt
Viditelnost: 10 km
Skoro jasno ve výšce 15000 ft
Od 08 v 1500 UTC
Jižní vítr 5 kt
Viditelnost: 10 km
Oblačno až skoro zataženo ve výšce 8000 ft
Od 08 v 2000 UTC
Jižní vítr 4 kt
Viditelnost: 10 km
Zataženo ve výšce 5000 ft

TAF: KHTS 072320Z 0800/0824 VRB04KT P6SM SKC FM080900 00000KT P6SM FEW150 FM081500 18005KT P6SM BKN080 FM082000 18004KT P6SM OVC050

Stav a předpovědi počasí z více než 4 000 letišť (zprávy METAR a TAF).

Červené a žluté tečky na mapě představují dostupné meteorologické stanice.

Když kurzor umístíte na tečku, zobrazí se název stanice.

Pak kliknutím zobrazíte stav a předpověď počasí.

Chcete-li změnit mapu, kliknutím na zelené tlačítko se znaménkem +mapu přiblížíte, kliknutím na zelené tlačítko se znaménkem – mapu oddálíte a kliknutím na zelené šipky přejdete na sousední mapy.


METAR-TAF: